Detall de PIREP

Printer-friendly versionPDF version

[2015/08/30 08:27:00]
Flight IATA:CT3306
Pilot Number:042
Company ICAO:CAT
Aircraft Type:B752/E
PAX:0
Aircraft Registration:CARGO
Departing Airport: LEZG
Destination Airport: HECA
Alternate Airport:HEOC
Online: VATSIM
Route:PONEN UN870 BCN UN725 NOLVI UM739 ETOIL UM871 SUBOK UP158 DEMAG UM978 SIT UL612 KUMBI BLT A16 CVO
Flight Level:F370
No Slew and time accel
No pause
Crash detect
Detect pilot in Cockpit between each 30 and 45 minutes
08:27 Zero fuel Weight: 200009 Lbs, Fuel Weight: 75216 Lbs
08:27 VATSIM:LEZG 300800Z 11010KT 080V140 9999 FEW018 23/18 Q1019
08:27 VATSIM:HECA 300800Z 00000KT 6000 FEW025 29/21 Q1013 NOSIG
08:28 Parking Brakes off
08:31 Take-off
08:31 Take off Weight: 274132 Lbs
08:31 Wind: 111º @ 010 Knots Heading: 301º
08:31 POS N41º 39´ 59´´ W001º 02´ 01´´
08:31 Flaps:3 at 185 Knots
08:31 Gear Up: 186 Knots
08:31 Flaps:2 at 197 Knots
08:32 Flaps:1 at 200 Knots
08:32 Flaps:0 at 221 Knots
08:46 Wind:179º@013 Knots Heading: 092º Ground Speed: 389 Knots Altitude 16932 ft
09:01 Wind:198º@007 Knots Heading: 104º Ground Speed: 438 Knots Altitude 23195 ft
09:16 Wind:263º@001 Knots Heading: 095º Ground Speed: 485 Knots Altitude 27709 ft
09:31 Wind:337º@007 Knots Heading: 137º Ground Speed: 525 Knots Altitude 33415 ft
09:34 TOC
09:34 Fuel Weight: 59944 Lb
09:46 Wind:154º@005 Knots Heading: 117º Ground Speed: 460 Knots Altitude 37198 ft
10:01 Wind:138º@022 Knots Heading: 112º Ground Speed: 444 Knots Altitude 37201 ft
10:16 Wind:135º@034 Knots Heading: 113º Ground Speed: 433 Knots Altitude 37185 ft
10:31 Wind:129º@038 Knots Heading: 122º Ground Speed: 425 Knots Altitude 37185 ft
10:46 Wind:120º@045 Knots Heading: 106º Ground Speed: 421 Knots Altitude 37175 ft
11:01 Wind:115º@044 Knots Heading: 107º Ground Speed: 421 Knots Altitude 37152 ft
11:16 Wind:113º@032 Knots Heading: 098º Ground Speed: 434 Knots Altitude 37165 ft
11:31 Wind:104º@017 Knots Heading: 094º Ground Speed: 448 Knots Altitude 37099 ft
11:46 Wind:009º@012 Knots Heading: 119º Ground Speed: 469 Knots Altitude 37007 ft
12:01 Wind:295º@027 Knots Heading: 123º Ground Speed: 493 Knots Altitude 36988 ft
12:16 Wind:288º@049 Knots Heading: 158º Ground Speed: 501 Knots Altitude 36998 ft
12:31 Wind:289º@046 Knots Heading: 226º Ground Speed: 445 Knots Altitude 37004 ft
12:46 Wind:288º@047 Knots Heading: 114º Ground Speed: 509 Knots Altitude 37011 ft
12:46 TOD
12:46 Fuel Weight: 32990 Lb
13:01 Wind:317º@013 Knots Heading: 161º Ground Speed: 275 Knots Altitude 9806 ft
13:01 Flaps:1 at 222 Knots
13:02 Flaps:2 at 200 Knots
13:08 Flaps:3 at 169 Knots
13:08 Flaps:4 at 168 Knots
13:09 Gear Down: 183 Knots
13:10 Flaps:5 at 178 Knots
13:10 Flaps:6 at 179 Knots
13:10 Flaps:5 at 164 Knots
13:10 Flaps:6 at 161 Knots
13:10 Flaps:5 at 162 Knots
13:10 Flaps:6 at 161 Knots
13:11 Flaps:5 at 163 Knots
13:12 Flaps:6 at 160 Knots
13:12 TouchDown:Rate -225 ft/min Speed: 138 Knots
13:13 VATSIM:HECA 301300Z 30008KT CAVOK 35/11 Q1011 NOSIG
13:13 Land
13:13 Wind:299º@008 Knots
13:13 Heading: 227º
13:13 Flight Duration: 04:42
13:13 Landing Weight: 230512 Lbs
13:13 POS N30º 06´ 03´´ E031º 25´ 17´´
13:14 Parking brakes on
13:14 Block to Block Duration: 04:46
13:14 Final Fuel: 30315 Lbls
13:14 Spent Fuel: 44900 Lbls
13:14 Flight Length: 2037 NM
13:14 TOD Land Length: 139 NM

Exportar CSV

Powered by Drupal - Modified by Danger4k